createdAt,value
2019-01-18T00:01:52.944Z,100255.38
2019-01-18T00:04:24.131Z,100266.05
2019-01-18T00:06:55.016Z,100272.48
2019-01-18T00:09:25.950Z,100273.84
2019-01-18T00:11:56.853Z,100271.97
2019-01-18T00:14:27.733Z,100285.13
2019-01-18T00:16:58.764Z,100292.81
2019-01-18T00:19:29.651Z,100294.41
2019-01-18T00:22:00.526Z,100295.86
2019-01-18T00:24:31.460Z,100312.03
2019-01-18T00:27:02.349Z,100323.19
2019-01-18T00:29:33.249Z,100326.98
2019-01-18T00:32:04.175Z,100333.80
2019-01-18T00:34:35.057Z,100336.23
2019-01-18T00:37:06.760Z,100347.72
2019-01-18T00:39:37.755Z,100352.39
2019-01-18T00:42:08.806Z,100358.05
2019-01-18T00:44:39.698Z,100361.02
2019-01-18T00:47:10.604Z,100371.65
2019-01-18T00:49:41.485Z,100371.18
2019-01-18T00:52:12.366Z,100375.03
2019-01-18T00:54:43.327Z,100390.80
2019-01-18T00:57:14.214Z,100393.30
2019-01-18T00:59:45.095Z,100394.14
2019-01-18T01:02:16.316Z,100399.64
2019-01-18T01:04:47.492Z,100401.27
2019-01-18T01:07:19.565Z,100405.21
2019-01-18T01:09:50.740Z,100416.70
2019-01-18T01:12:21.635Z,100424.86
2019-01-18T01:14:52.589Z,100439.05
2019-01-18T01:17:23.485Z,100442.84
2019-01-18T01:19:54.392Z,100454.74
2019-01-18T01:22:25.374Z,100462.42
2019-01-18T01:24:56.444Z,100465.88
2019-01-18T01:27:27.401Z,100472.62
2019-01-18T01:29:58.407Z,100483.72
2019-01-18T01:32:29.379Z,100492.72
2019-01-18T01:35:03.432Z,100496.18
2019-01-18T01:37:34.323Z,100506.76
2019-01-18T01:40:07.084Z,100516.22
2019-01-18T01:42:38.102Z,100520.95
2019-01-18T01:45:09.703Z,100534.11
2019-01-18T01:47:40.578Z,100536.73
2019-01-18T01:50:15.503Z,100552.91
2019-01-18T01:52:46.379Z,100546.95
2019-01-18T01:55:17.253Z,100558.50
2019-01-18T01:57:48.303Z,100563.24
2019-01-18T02:00:22.098Z,100570.48
2019-01-18T02:02:53.359Z,100576.48
2019-01-18T02:05:24.343Z,100586.64
2019-01-18T02:07:55.241Z,100585.88
2019-01-18T02:10:26.390Z,100601.17
2019-01-18T02:12:57.873Z,100605.45
2019-01-18T02:15:29.626Z,100605.00
2019-01-18T02:18:00.525Z,100617.76
2019-01-18T02:20:31.429Z,100616.52
2019-01-18T02:23:02.404Z,100628.06
2019-01-18T02:25:33.291Z,100631.39
2019-01-18T02:28:04.464Z,100642.08
2019-01-18T02:30:35.457Z,100640.34
2019-01-18T02:33:06.523Z,100653.14
2019-01-18T02:35:37.404Z,100650.56
2019-01-18T02:38:08.375Z,100658.23
2019-01-18T02:40:39.268Z,100663.77
2019-01-18T02:43:10.161Z,100664.59
2019-01-18T02:45:41.118Z,100670.97
2019-01-18T02:48:12.009Z,100676.06
2019-01-18T02:50:42.917Z,100678.64
2019-01-18T02:53:13.872Z,100679.91
2019-01-18T02:55:44.874Z,100688.83
2019-01-18T02:58:16.126Z,100695.19
2019-01-18T03:00:47.077Z,100690.11
2019-01-18T03:03:17.970Z,100700.28
2019-01-18T03:05:48.857Z,100701.98
2019-01-18T03:08:19.792Z,100709.19
2019-01-18T03:10:50.701Z,100713.45
2019-01-18T03:13:21.598Z,100715.98
2019-01-18T03:15:52.544Z,100718.97
2019-01-18T03:18:23.438Z,100726.17
2019-01-18T03:20:54.360Z,100729.55
2019-01-18T03:23:25.305Z,100730.83
2019-01-18T03:25:56.211Z,100745.69
2019-01-18T03:28:27.389Z,100749.91
2019-01-18T03:30:58.323Z,100761.80
2019-01-18T03:33:29.219Z,100758.80
2019-01-18T03:36:00.103Z,100760.09
2019-01-18T03:38:31.071Z,100771.95
2019-01-18T03:41:01.973Z,100780.42
2019-01-18T03:43:33.153Z,100785.91
2019-01-18T03:46:04.081Z,100791.44
2019-01-18T03:48:34.974Z,100791.47
2019-01-18T03:51:05.862Z,100802.05
2019-01-18T03:53:37.110Z,100803.33
2019-01-18T03:56:08.296Z,100807.17
2019-01-18T03:58:39.510Z,100818.19
2019-01-18T04:01:10.451Z,100819.00
2019-01-18T04:03:41.677Z,100825.75
2019-01-18T04:06:12.863Z,100833.42
2019-01-18T04:08:43.804Z,100839.34
2019-01-18T04:11:14.766Z,100845.31
2019-01-18T04:13:45.651Z,100849.12
2019-01-18T04:16:18.083Z,100844.47
2019-01-18T04:18:48.977Z,100847.37
2019-01-18T04:21:19.934Z,100854.55
2019-01-18T04:23:50.912Z,100857.53
2019-01-18T04:26:21.808Z,100863.02
2019-01-18T04:28:52.788Z,100866.00
2019-01-18T04:31:23.752Z,100876.57
2019-01-18T04:33:55.043Z,100874.86
2019-01-18T04:36:25.938Z,100877.77
2019-01-18T04:38:56.918Z,100874.34
2019-01-18T04:41:27.830Z,100882.41
2019-01-18T04:43:58.719Z,100886.62
2019-01-18T04:46:29.679Z,100889.59
2019-01-18T04:49:00.639Z,100891.23
2019-01-18T04:51:31.930Z,100900.52
2019-01-18T04:54:02.868Z,100899.62
2019-01-18T04:56:33.755Z,100902.52
2019-01-18T04:59:04.665Z,100902.95
2019-01-18T05:01:35.590Z,100898.33
2019-01-18T05:04:06.506Z,100907.98
2019-01-18T05:06:37.394Z,100911.42
2019-01-18T05:09:09.780Z,100910.98
2019-01-18T05:11:40.710Z,100908.59
2019-01-18T05:14:11.713Z,100916.58
2019-01-18T05:16:42.680Z,100925.92
2019-01-18T05:19:13.576Z,100928.05
2019-01-18T05:21:44.486Z,100939.43
2019-01-18T05:24:15.398Z,100942.34
2019-01-18T05:26:46.364Z,100947.36
2019-01-18T05:29:17.244Z,100948.69
2019-01-18T05:31:48.140Z,100953.72
2019-01-18T05:34:19.065Z,100960.13
2019-01-18T05:36:50.251Z,100959.32
2019-01-18T05:39:21.225Z,100968.20
2019-01-18T05:41:52.125Z,100971.96
2019-01-18T05:44:23.095Z,100971.94
2019-01-18T05:46:54.040Z,100979.56
2019-01-18T05:49:24.945Z,100981.63
2019-01-18T05:51:55.843Z,100989.25
2019-01-18T05:54:26.786Z,100990.09
2019-01-18T05:56:57.668Z,101000.62
2019-01-18T05:59:28.654Z,101001.97
2019-01-18T06:01:59.652Z,101001.94
2019-01-18T06:04:30.547Z,101003.22
2019-01-18T06:07:01.510Z,101011.20
2019-01-18T06:09:32.742Z,101014.57
2019-01-18T06:12:03.947Z,101019.19
2019-01-18T06:14:35.127Z,101023.80
2019-01-18T06:17:06.342Z,101026.00
2019-01-18T06:19:37.244Z,101025.94
2019-01-18T06:22:08.207Z,101034.41
2019-01-18T06:24:39.103Z,101035.23
2019-01-18T06:27:09.996Z,101036.02
2019-01-18T06:29:40.935Z,101039.38
2019-01-18T06:32:11.846Z,101041.11
2019-01-18T06:34:42.822Z,101045.81
2019-01-18T06:37:14.023Z,101050.44
2019-01-18T06:39:45.280Z,101056.77
2019-01-18T06:42:16.507Z,101065.27
2019-01-18T06:44:47.416Z,101069.47
2019-01-18T06:47:18.346Z,101071.95
2019-01-18T06:49:49.239Z,101075.35
2019-01-18T06:52:20.432Z,101080.47
2019-01-18T06:54:51.366Z,101081.77
2019-01-18T06:57:22.339Z,101080.93
2019-01-18T06:59:53.368Z,101084.73
2019-01-18T07:02:24.263Z,101090.77
2019-01-18T07:04:55.208Z,101103.45
2019-01-18T07:07:26.134Z,101108.91
2019-01-18T07:09:57.031Z,101109.73
2019-01-18T07:12:28.005Z,101106.25
2019-01-18T07:14:58.932Z,101108.67
2019-01-18T07:17:30.138Z,101109.45
2019-01-18T07:20:01.368Z,101114.06
2019-01-18T07:22:32.385Z,101115.70
2019-01-18T07:25:03.409Z,101118.28
2019-01-18T07:27:34.308Z,101115.37
2019-01-18T07:30:06.892Z,101115.73
2019-01-18T07:32:37.844Z,101119.55
2019-01-18T07:35:08.963Z,101125.06
2019-01-18T07:37:41.135Z,101128.12
2019-01-18T07:40:12.461Z,101129.88
2019-01-18T07:42:43.734Z,101135.86
2019-01-18T07:45:22.979Z,101133.48
2019-01-18T07:47:53.964Z,101137.70
2019-01-18T07:50:25.010Z,101133.83
2019-01-18T07:52:56.132Z,101135.14
2019-01-18T07:55:27.040Z,101134.34
2019-01-18T07:57:57.975Z,101141.55
2019-01-18T08:00:30.883Z,101139.95
2019-01-18T08:03:01.851Z,101143.27
2019-01-18T08:05:33.927Z,101147.67
2019-01-18T08:08:05.403Z,101144.12
2019-01-18T08:10:36.351Z,101148.28
2019-01-18T08:13:07.575Z,101143.17
2019-01-18T08:15:38.540Z,101148.28
2019-01-18T08:18:09.470Z,101156.42
2019-01-18T08:20:40.352Z,101157.83
2019-01-18T08:23:11.292Z,101160.97
2019-01-18T08:25:42.186Z,101160.13
2019-01-18T08:28:13.118Z,101170.23
2019-01-18T08:30:45.639Z,101172.20
2019-01-18T08:33:16.601Z,101182.14
2019-01-18T08:35:47.927Z,101179.67
2019-01-18T08:38:18.838Z,101187.09
2019-01-18T08:40:49.874Z,101185.87
2019-01-18T08:43:21.139Z,101181.49
2019-01-18T08:46:05.394Z,101185.20
2019-01-18T08:48:36.571Z,101187.25
2019-01-18T08:51:07.489Z,101182.64
2019-01-18T08:53:38.413Z,101189.92
2019-01-18T08:56:10.935Z,101191.45
2019-01-18T08:58:41.884Z,101198.41
2019-01-18T09:01:12.777Z,101192.78
2019-01-18T09:03:43.667Z,101194.17
2019-01-18T09:06:14.583Z,101195.33
2019-01-18T09:08:45.788Z,101199.77
2019-01-18T09:11:17.021Z,101199.87
2019-01-18T09:13:47.922Z,101205.10
2019-01-18T09:16:20.288Z,101206.00
2019-01-18T09:18:51.265Z,101209.55
2019-01-18T09:21:22.189Z,101214.62
2019-01-18T09:23:53.118Z,101223.62
2019-01-18T09:26:24.294Z,101222.98
2019-01-18T09:28:55.205Z,101226.00
2019-01-18T09:31:26.120Z,101229.25
2019-01-18T09:33:57.927Z,101227.06
2019-01-18T09:36:29.160Z,101241.67
2019-01-18T09:39:00.362Z,101250.13
2019-01-18T09:41:31.252Z,101251.80
2019-01-18T09:44:02.158Z,101247.80
2019-01-18T09:46:33.047Z,101248.82
2019-01-18T09:49:04.377Z,101252.06
2019-01-18T09:51:35.373Z,101250.34
2019-01-18T09:54:06.803Z,101255.80
2019-01-18T09:56:39.109Z,101263.11
2019-01-18T09:59:10.308Z,101264.48
2019-01-18T10:01:42.239Z,101261.72
2019-01-18T10:04:13.531Z,101263.53
2019-01-18T10:06:44.422Z,101265.91
2019-01-18T10:09:15.457Z,101259.66
2019-01-18T10:11:46.626Z,101268.98
2019-01-18T10:14:17.575Z,101264.27
2019-01-18T10:16:48.758Z,101269.21
2019-01-18T10:19:19.664Z,101269.91
2019-01-18T10:21:50.574Z,101273.56
2019-01-18T10:24:21.477Z,101270.00
2019-01-18T10:26:52.412Z,101261.81
2019-01-18T10:29:28.131Z,101266.89
2019-01-18T10:31:56.367Z,101258.39
2019-01-18T10:34:27.307Z,101262.64
2019-01-18T10:36:58.275Z,101270.01
2019-01-18T10:39:29.522Z,101268.20
2019-01-18T10:42:00.404Z,101269.50
2019-01-18T10:44:32.352Z,101270.26
2019-01-18T10:47:03.244Z,101276.28
2019-01-18T10:49:35.143Z,101272.92
2019-01-18T10:52:06.351Z,101272.81
2019-01-18T10:54:37.513Z,101273.77
2019-01-18T10:57:09.819Z,101271.69
2019-01-18T10:59:40.715Z,101276.81
2019-01-18T11:02:13.275Z,101281.05
2019-01-18T11:04:44.201Z,101279.06
2019-01-18T11:07:15.092Z,101280.78
2019-01-18T11:09:46.015Z,101277.05
2019-01-18T11:12:17.244Z,101281.16
2019-01-18T11:14:48.872Z,101278.16
2019-01-18T11:17:19.869Z,101277.83
2019-01-18T11:19:50.981Z,101272.70
2019-01-18T11:22:26.570Z,101273.43
2019-01-18T11:24:58.283Z,101274.07
2019-01-18T11:27:29.239Z,101277.08
2019-01-18T11:30:00.233Z,101271.11
2019-01-18T11:32:35.686Z,101276.27
2019-01-18T11:35:07.308Z,101274.86
2019-01-18T11:37:38.429Z,101269.85
2019-01-18T11:40:14.794Z,101269.31
2019-01-18T11:42:45.796Z,101266.57
2019-01-18T11:45:17.270Z,101265.12
2019-01-18T11:47:48.545Z,101262.21
2019-01-18T11:50:22.580Z,101264.30
2019-01-18T11:52:53.555Z,101265.58
2019-01-18T11:55:24.640Z,101263.48
2019-01-18T11:57:55.590Z,101262.53
2019-01-18T12:00:28.018Z,101267.70
2019-01-18T12:02:59.447Z,101270.67
2019-01-18T12:05:30.378Z,101274.63
2019-01-18T12:08:01.284Z,101269.81
2019-01-18T12:10:33.916Z,101266.02
2019-01-18T12:13:05.018Z,101268.22
2019-01-18T12:15:35.991Z,101266.95
2019-01-18T12:18:07.164Z,101266.98
2019-01-18T12:20:38.907Z,101263.02
2019-01-18T12:23:10.877Z,101269.52
2019-01-18T12:25:41.768Z,101265.11
2019-01-18T12:28:12.824Z,101268.98
2019-01-18T12:30:43.719Z,101267.27
2019-01-18T12:33:14.628Z,101264.24
2019-01-18T12:35:45.540Z,101264.20
2019-01-18T12:38:16.762Z,101265.11
2019-01-18T12:40:47.772Z,101265.39
2019-01-18T12:43:18.841Z,101265.31
2019-01-18T12:45:49.846Z,101259.73
2019-01-18T12:48:20.756Z,101260.45
2019-01-18T12:50:51.629Z,101259.96
2019-01-18T12:53:22.653Z,101265.82
2019-01-18T12:55:53.548Z,101259.34
2019-01-18T12:58:24.752Z,101266.18
2019-01-18T13:00:55.783Z,101259.53
2019-01-18T13:03:27.409Z,101262.91
2019-01-18T13:05:58.474Z,101263.18
2019-01-18T13:08:29.370Z,101263.95
2019-01-18T13:11:00.261Z,101267.37
2019-01-18T13:13:31.765Z,101261.24
2019-01-18T13:16:33.018Z,101260.50
2019-01-18T13:19:09.143Z,101260.94
2019-01-18T13:21:40.332Z,101260.17
2019-01-18T13:24:11.257Z,101258.38
2019-01-18T13:26:42.143Z,101262.50
2019-01-18T13:29:13.078Z,101261.02
2019-01-18T13:31:44.386Z,101261.03
2019-01-18T13:34:15.639Z,101261.45
2019-01-18T13:36:46.564Z,101257.55
2019-01-18T13:39:17.797Z,101261.90
2019-01-18T13:41:49.029Z,101260.37
2019-01-18T13:44:19.923Z,101266.35
2019-01-18T13:46:50.910Z,101258.38
2019-01-18T13:49:21.819Z,101275.13
2019-01-18T13:51:53.014Z,101276.48
2019-01-18T13:54:23.968Z,101279.98
2019-01-18T13:56:54.886Z,101280.78
2019-01-18T13:59:25.979Z,101282.84
2019-01-18T14:01:57.185Z,101285.88
2019-01-18T14:04:28.093Z,101286.69
2019-01-18T14:06:59.334Z,101288.42
2019-01-18T14:09:30.220Z,101287.97
2019-01-18T14:12:01.116Z,101289.30
2019-01-18T14:14:32.126Z,101282.89
2019-01-18T14:17:03.044Z,101285.78
2019-01-18T14:19:34.348Z,101279.80
2019-01-18T14:22:05.355Z,101284.07
2019-01-18T14:24:36.797Z,101283.69
2019-01-18T14:27:07.710Z,101285.88
2019-01-18T14:29:38.641Z,101289.30
2019-01-18T14:32:09.537Z,101289.23
2019-01-18T14:34:40.447Z,101293.75
2019-01-18T14:37:11.378Z,101295.50
2019-01-18T14:39:42.318Z,101296.44
2019-01-18T14:42:13.206Z,101299.42
2019-01-18T14:44:44.133Z,101295.14
2019-01-18T14:47:15.126Z,101293.02
2019-01-18T14:49:46.122Z,101298.23
2019-01-18T14:52:17.051Z,101300.81
2019-01-18T14:54:48.258Z,101300.46
2019-01-18T14:57:19.171Z,101305.19
2019-01-18T14:59:50.376Z,101308.31
2019-01-18T15:02:21.309Z,101310.86
2019-01-18T15:04:52.224Z,101311.44
2019-01-18T15:07:24.204Z,101309.30
2019-01-18T15:09:57.606Z,101314.96
2019-01-18T15:12:28.097Z,101316.64
2019-01-18T15:14:59.075Z,101320.98
2019-01-18T15:17:34.598Z,101314.61
2019-01-18T15:20:02.642Z,101312.44
2019-01-18T15:22:33.548Z,101312.42
2019-01-18T15:25:05.156Z,101324.02
2019-01-18T15:27:37.937Z,101320.20
2019-01-18T15:30:11.492Z,101322.23
2019-01-18T15:32:42.769Z,101319.27
2019-01-18T15:35:16.817Z,101327.39
2019-01-18T15:37:47.803Z,101326.53
2019-01-18T15:40:22.804Z,101326.52
2019-01-18T15:42:53.766Z,101327.84
2019-01-18T15:45:24.696Z,101331.34
2019-01-18T15:47:55.597Z,101327.53
2019-01-18T15:50:32.744Z,101327.05
2019-01-18T15:53:04.047Z,101329.25
2019-01-18T15:55:35.410Z,101329.25
2019-01-18T15:58:07.803Z,101331.41
2019-01-18T16:00:41.947Z,101324.62
2019-01-18T16:03:16.010Z,101327.97
2019-01-18T16:05:45.839Z,101334.48
2019-01-18T16:08:16.791Z,101338.77
2019-01-18T16:10:47.701Z,101336.23
2019-01-18T16:13:18.642Z,101343.92
2019-01-18T16:16:26.364Z,101343.48
2019-01-18T16:18:58.400Z,101344.31
2019-01-18T16:21:29.313Z,101346.48
2019-01-18T16:24:00.193Z,101345.59
2019-01-18T16:26:31.123Z,101354.98
2019-01-18T16:29:02.316Z,101350.70
2019-01-18T16:31:33.718Z,101355.02
2019-01-18T16:34:04.720Z,101351.57
2019-01-18T16:36:36.663Z,101352.88
2019-01-18T16:39:11.034Z,101353.74
2019-01-18T16:41:42.636Z,101350.75
2019-01-18T16:44:13.580Z,101354.16
2019-01-18T16:46:44.510Z,101352.44
2019-01-18T16:49:15.547Z,101351.98
2019-01-18T16:51:48.799Z,101351.13
2019-01-18T16:54:19.776Z,101345.98
2019-01-18T16:56:50.988Z,101348.16
2019-01-18T16:59:24.296Z,101350.72
2019-01-18T17:01:55.204Z,101352.40
2019-01-18T17:04:26.113Z,101352.40
2019-01-18T17:06:57.144Z,101354.95
2019-01-18T17:09:30.657Z,101350.72
2019-01-18T17:12:01.615Z,101353.29
2019-01-18T17:14:32.507Z,101346.42
2019-01-18T17:17:03.423Z,101346.82
2019-01-18T17:19:34.695Z,101351.16
2019-01-18T17:22:05.706Z,101351.57
2019-01-18T17:24:36.662Z,101352.05
2019-01-18T17:27:07.661Z,101354.14
2019-01-18T17:29:38.634Z,101355.84
2019-01-18T17:32:09.882Z,101353.68
2019-01-18T17:34:40.786Z,101355.41
2019-01-18T17:37:21.114Z,101365.66
2019-01-18T17:40:30.915Z,101358.42
2019-01-18T17:43:38.561Z,101361.86
2019-01-18T17:47:06.018Z,101358.00
2019-01-18T17:50:20.790Z,101366.17
2019-01-18T17:54:07.611Z,101365.31
2019-01-18T17:57:41.553Z,101366.58
2019-01-18T18:01:26.269Z,101374.70
2019-01-18T18:04:50.060Z,101372.56
2019-01-18T18:08:17.773Z,101376.41
2019-01-18T18:11:49.049Z,101378.97
2019-01-18T18:14:56.359Z,101387.08
2019-01-18T18:18:22.196Z,101384.08
2019-01-18T18:21:19.610Z,101383.23
2019-01-18T18:24:36.511Z,101383.25
2019-01-18T18:28:05.269Z,101392.63
2019-01-18T18:31:16.542Z,101392.60
2019-01-18T18:35:11.478Z,101393.47
2019-01-18T18:38:46.421Z,101396.02
2019-01-18T18:42:17.232Z,101402.83
2019-01-18T18:45:39.335Z,101399.85
2019-01-18T18:49:12.360Z,101402.84
2019-01-18T18:52:56.972Z,101406.67
2019-01-18T18:56:37.439Z,101400.70
2019-01-18T19:00:02.595Z,101408.36
2019-01-18T19:03:57.226Z,101407.09
2019-01-18T19:07:19.854Z,101399.85
2019-01-18T19:10:22.657Z,101397.30
2019-01-18T19:13:34.723Z,101400.70
2019-01-18T19:17:17.023Z,101393.45
2019-01-18T19:20:59.003Z,101401.55
2019-01-18T19:24:26.871Z,101400.30
2019-01-18T19:27:59.789Z,101404.98
2019-01-18T19:31:29.765Z,101404.96
2019-01-18T19:34:52.023Z,101401.55
2019-01-18T19:38:11.371Z,101407.94
2019-01-18T19:41:16.056Z,101404.95
2019-01-18T19:44:30.717Z,101404.96
2019-01-18T19:47:44.558Z,101409.66
2019-01-18T19:51:06.923Z,101418.59
2019-01-18T19:54:06.203Z,101420.73
2019-01-18T19:57:34.671Z,101415.61
2019-01-18T20:01:13.410Z,101418.60
2019-01-18T20:04:37.782Z,101418.18
2019-01-18T20:07:46.497Z,101416.05
2019-01-18T20:11:22.421Z,101424.98
2019-01-18T20:15:20.135Z,101424.14
2019-01-18T20:18:49.548Z,101431.78
2019-01-18T20:22:33.894Z,101433.06
2019-01-18T20:26:09.419Z,101436.48
2019-01-18T20:29:42.096Z,101436.48
2019-01-18T20:33:23.878Z,101435.20
2019-01-18T20:36:41.739Z,101437.34
2019-01-18T20:39:59.052Z,101431.80
2019-01-18T20:42:49.993Z,101436.52
2019-01-18T20:46:41.616Z,101434.77
2019-01-18T20:50:26.465Z,101439.47
2019-01-18T20:53:54.149Z,101442.88
2019-01-18T20:57:25.946Z,101444.56
2019-01-18T21:00:43.802Z,101443.69
2019-01-18T21:04:33.082Z,101446.69
2019-01-18T21:07:56.435Z,101446.22
2019-01-18T21:11:34.455Z,101448.80
2019-01-18T21:14:57.286Z,101452.64
2019-01-18T21:18:49.290Z,101451.33
2019-01-18T21:22:04.831Z,101453.04
2019-01-18T21:25:05.445Z,101453.87
2019-01-18T21:28:07.543Z,101458.98
2019-01-18T21:31:29.297Z,101455.95
2019-01-18T21:35:11.762Z,101456.78
2019-01-18T21:38:18.291Z,101453.28
2019-01-18T21:41:58.450Z,101450.67
2019-01-18T21:45:36.803Z,101452.33
2019-01-18T21:48:54.557Z,101457.80
2019-01-18T21:52:37.643Z,101457.28
2019-01-18T21:55:48.621Z,101458.94
2019-01-18T21:59:06.175Z,101460.97
2019-01-18T22:02:28.607Z,101458.83
2019-01-18T22:05:55.752Z,101466.42
2019-01-18T22:09:18.057Z,101467.67
2019-01-18T22:12:50.780Z,101463.02
2019-01-18T22:16:26.304Z,101459.94
2019-01-18T22:20:09.901Z,101466.69
2019-01-18T22:23:19.766Z,101471.31
2019-01-18T22:27:01.282Z,101470.39
2019-01-18T22:30:58.505Z,101472.91
2019-01-18T22:34:09.150Z,101475.80
2019-01-18T22:37:29.656Z,101474.44
2019-01-18T22:40:54.223Z,101470.24
2019-01-18T22:43:57.687Z,101472.79
2019-01-18T22:47:44.225Z,101469.55
2019-01-18T22:51:01.295Z,101474.20
2019-01-18T22:54:25.244Z,101466.99
2019-01-18T22:58:01.723Z,101467.92
2019-01-18T23:01:27.125Z,101465.13
2019-01-18T23:05:00.866Z,101468.61
2019-01-18T23:08:48.378Z,101478.87
2019-01-18T23:12:17.654Z,101478.50
2019-01-18T23:16:24.350Z,101475.50
2019-01-18T23:19:37.267Z,101475.89
2019-01-18T23:23:15.677Z,101478.44
2019-01-18T23:26:54.399Z,101475.88
2019-01-18T23:30:25.031Z,101475.88
2019-01-18T23:33:57.555Z,101477.17
2019-01-18T23:36:44.076Z,101486.08
2019-01-18T23:40:22.660Z,101485.17
2019-01-18T23:44:01.952Z,101484.70
2019-01-18T23:47:04.764Z,101489.68
2019-01-18T23:50:31.984Z,101484.97
2019-01-18T23:53:53.527Z,101476.84
2019-01-18T23:57:12.506Z,101476.25
